Time;durP1;ratioP1;P1;durP2;ratioP2;P2;SDS_P1;SDS_P2;PMS_P1;PMS_P2;Temp;Humidity;BMP_temperature;BMP_pressure;BME280_temperature;BME280_humidity;BME280_pressure;Samples;Min_cycle;Max_cycle;Signal;HPM_P1;HPM_P2
2022/03/06 00:01:26;;;;;;;8.45;5.22;;;;;;;-0.37;60.67;100809.00;4409129;32;20417;-77
2022/03/06 00:03:54;;;;;;;7.07;4.55;;;;;;;-0.49;60.80;100804.25;4423378;32;20599;-77
2022/03/06 00:06:21;;;;;;;10.00;4.87;;;;;;;-0.61;61.24;100808.91;4423373;32;20108;-77
2022/03/06 00:08:48;;;;;;;11.07;5.43;;;;;;;-0.74;61.60;100809.28;4423229;32;20833;-77
2022/03/06 00:11:15;;;;;;;11.15;5.22;;;;;;;-0.79;61.61;100811.66;4423454;32;20153;-77
2022/03/06 00:13:42;;;;;;;9.43;5.35;;;;;;;-0.94;62.59;100818.78;4409105;32;20517;-77
2022/03/06 00:16:09;;;;;;;9.40;5.32;;;;;;;-0.96;62.60;100825.59;4423269;32;20094;-77
2022/03/06 00:18:37;;;;;;;10.32;5.75;;;;;;;-1.02;62.75;100820.19;4409118;32;20136;-77
2022/03/06 00:21:09;;;;;;;9.95;5.40;;;;;;;-1.09;62.83;100823.34;4423610;32;20567;-77
2022/03/06 00:23:36;;;;;;;8.13;5.05;;;;;;;-1.09;63.32;100824.22;4423377;32;20109;-77
2022/03/06 00:26:04;;;;;;;14.23;5.72;;;;;;;-1.07;62.92;100819.97;4408917;32;20153;-77
2022/03/06 00:28:31;;;;;;;8.98;5.78;;;;;;;-1.03;62.97;100810.66;4423247;32;20120;-77
2022/03/06 00:30:59;;;;;;;10.77;5.20;;;;;;;-1.12;62.80;100818.91;4423046;32;20784;-77
2022/03/06 00:33:26;;;;;;;9.57;5.72;;;;;;;-1.13;62.92;100808.50;4423306;32;20161;-77
2022/03/06 00:35:53;;;;;;;8.80;5.10;;;;;;;-1.08;62.92;100813.03;4421879;32;20465;-77
2022/03/06 00:38:20;;;;;;;9.45;5.53;;;;;;;-1.12;63.11;100816.31;4423112;32;20135;-77
2022/03/06 00:40:48;;;;;;;11.25;5.55;;;;;;;-1.14;63.19;100817.94;4423047;32;20531;-77
2022/03/06 00:43:15;;;;;;;11.18;5.30;;;;;;;-1.18;63.32;100816.06;4423011;32;20156;-77
2022/03/06 00:45:44;;;;;;;8.48;5.05;;;;;;;-1.10;63.41;100814.66;4423104;32;20086;-77
2022/03/06 00:48:12;;;;;;;10.57;5.12;;;;;;;-1.09;63.55;100815.59;4423249;32;20147;-77
2022/03/06 00:50:40;;;;;;;8.25;5.22;;;;;;;-1.10;63.76;100811.22;4422804;32;20179;-77
2022/03/06 00:53:08;;;;;;;9.32;4.57;;;;;;;-1.05;63.84;100815.75;4422839;32;20486;-77
2022/03/06 00:55:37;;;;;;;8.82;4.45;;;;;;;-1.07;63.77;100819.97;4422853;32;20377;-77
2022/03/06 00:58:09;;;;;;;9.75;4.72;;;;;;;-1.09;64.26;100818.16;4422794;32;20112;-77
2022/03/06 01:00:41;;;;;;;8.43;4.70;;;;;;;-1.10;64.14;100816.37;4422899;32;20490;-77
2022/03/06 01:03:14;;;;;;;8.00;4.62;;;;;;;-1.16;64.31;100809.28;4422915;32;20102;-77
2022/03/06 01:05:42;;;;;;;8.75;5.18;;;;;;;-1.21;64.39;100813.34;4422876;32;20085;-77
2022/03/06 01:08:10;;;;;;;8.93;4.80;;;;;;;-1.29;64.53;100812.16;4408476;32;20085;-77
2022/03/06 01:10:39;;;;;;;7.30;4.53;;;;;;;-1.36;65.07;100807.53;4408507;32;20098;-77
2022/03/06 01:13:08;;;;;;;8.63;5.05;;;;;;;-1.39;65.17;100807.41;4408545;32;20101;-77
2022/03/06 01:15:36;;;;;;;7.37;4.60;;;;;;;-1.45;65.16;100808.91;4422484;32;20499;-77
2022/03/06 01:18:08;;;;;;;8.00;4.75;;;;;;;-1.59;65.95;100809.09;4422523;32;20119;-77
2022/03/06 01:20:37;;;;;;;9.30;4.97;;;;;;;-1.58;65.77;100808.31;4422469;32;20089;-77
2022/03/06 01:23:05;;;;;;;7.05;4.75;;;;;;;-1.68;66.19;100799.28;4408217;32;20139;-77
2022/03/06 01:25:33;;;;;;;11.77;4.72;;;;;;;-1.71;66.22;100797.44;4422620;32;20194;-77
2022/03/06 01:28:01;;;;;;;7.85;4.90;;;;;;;-1.75;66.22;100792.94;4408218;32;20502;-77
2022/03/06 01:30:29;;;;;;;7.03;4.62;;;;;;;-1.81;66.73;100795.25;4422331;32;20446;-77
2022/03/06 01:32:56;;;;;;;6.68;4.35;;;;;;;-1.76;66.40;100788.59;4422511;32;20128;-77
2022/03/06 01:35:23;;;;;;;11.25;4.72;;;;;;;-1.69;66.07;100784.59;4422599;32;20124;-77
2022/03/06 01:37:50;;;;;;;7.35;4.05;;;;;;;-1.62;65.90;100775.41;4422397;32;20487;-77
2022/03/06 01:40:21;;;;;;;7.22;4.47;;;;;;;-1.48;65.72;100772.59;4422517;32;20162;-77
2022/03/06 01:42:49;;;;;;;9.82;4.85;;;;;;;-1.48;65.45;100770.00;4422315;32;20120;-77
2022/03/06 01:45:20;;;;;;;9.80;4.90;;;;;;;-1.42;64.97;100763.31;4422066;32;20150;-77
2022/03/06 01:47:50;;;;;;;6.57;4.43;;;;;;;-1.46;64.98;100760.59;4423517;32;20123;-77
2022/03/06 01:50:20;;;;;;;8.43;4.90;;;;;;;-1.45;65.36;100766.66;4424395;32;20100;-77
2022/03/06 01:52:50;;;;;;;9.25;4.93;;;;;;;-1.44;65.10;100765.84;4424344;32;20097;-77
2022/03/06 01:55:18;;;;;;;8.65;5.18;;;;;;;-1.48;65.09;100764.84;4410294;32;20163;-77
2022/03/06 01:57:47;;;;;;;6.68;4.50;;;;;;;-1.43;64.79;100770.19;4424270;32;20154;-77
2022/03/06 02:00:23;;;;;;;8.35;4.53;;;;;;;-1.46;64.92;100762.31;4410103;32;20101;-77
2022/03/06 02:02:50;;;;;;;7.70;4.95;;;;;;;-1.53;65.00;100753.41;4424560;32;20128;-77
2022/03/06 02:05:18;;;;;;;9.13;5.20;;;;;;;-1.58;65.11;100752.34;4424546;32;20111;-77
2022/03/06 02:07:45;;;;;;;7.05;4.68;;;;;;;-1.57;65.37;100753.22;4424287;32;20584;-77
2022/03/06 02:10:14;;;;;;;10.05;5.70;;;;;;;-1.54;64.73;100753.38;4409857;32;20093;-77
2022/03/06 02:12:42;;;;;;;9.10;4.40;;;;;;;-1.64;65.19;100751.19;4424230;32;20132;-77
2022/03/06 02:15:12;;;;;;;10.68;5.10;;;;;;;-1.66;65.02;100755.41;4409932;32;20096;-77
2022/03/06 02:17:39;;;;;;;9.63;5.05;;;;;;;-1.62;64.93;100750.44;4410028;32;20453;-77
2022/03/06 02:20:19;;;;;;;12.63;5.20;;;;;;;-1.67;65.13;100746.78;4424223;32;20496;-77
2022/03/06 02:22:52;;;;;;;11.05;4.43;;;;;;;-1.75;65.36;100756.78;4424242;32;20192;-77
2022/03/06 02:25:22;;;;;;;9.93;5.55;;;;;;;-1.75;64.89;100753.31;4410042;32;20093;-77
2022/03/06 02:27:54;;;;;;;9.52;4.65;;;;;;;-1.81;65.22;100755.63;4424236;32;20523;-77
2022/03/06 02:30:24;;;;;;;8.40;4.68;;;;;;;-1.86;65.52;100757.12;4424080;32;20101;-77
2022/03/06 02:32:53;;;;;;;6.62;4.60;;;;;;;-1.94;65.64;100760.25;4424248;32;20136;-77
2022/03/06 02:35:21;;;;;;;9.50;4.93;;;;;;;-2.11;65.97;100763.78;4409988;32;20453;-77
2022/03/06 02:37:48;;;;;;;7.95;4.55;;;;;;;-2.19;66.19;100762.53;4424118;32;20193;-77
2022/03/06 02:40:17;;;;;;;9.63;5.30;;;;;;;-2.28;66.71;100760.44;4424020;32;20531;-77
2022/03/06 02:42:46;;;;;;;9.98;5.10;;;;;;;-2.33;67.28;100758.44;4424081;32;20101;-77
2022/03/06 02:45:18;;;;;;;10.52;5.25;;;;;;;-2.35;67.47;100763.56;4424044;32;20863;-77
2022/03/06 02:47:46;;;;;;;8.02;5.12;;;;;;;-2.37;67.77;100764.28;4409994;32;20147;-77
2022/03/06 02:50:20;;;;;;;13.57;6.47;;;;;;;-2.51;68.22;100758.47;4424096;32;20166;-77
2022/03/06 02:52:48;;;;;;;11.65;5.78;;;;;;;-2.65;68.99;100752.69;4424020;32;20159;-77
2022/03/06 02:55:16;;;;;;;8.32;5.20;;;;;;;-2.59;69.15;100755.56;4423967;32;20081;-77
2022/03/06 02:57:44;;;;;;;12.35;6.40;;;;;;;-2.67;69.01;100756.91;4423930;32;20479;-77
2022/03/06 03:00:15;;;;;;;10.75;6.05;;;;;;;-2.77;70.39;100755.56;4422965;32;20151;-77
2022/03/06 03:02:42;;;;;;;9.05;5.78;;;;;;;-2.75;70.44;100747.94;4423844;32;20130;-77
2022/03/06 03:05:11;;;;;;;10.52;6.87;;;;;;;-2.80;71.19;100745.09;4423866;32;20089;-77
2022/03/06 03:07:40;;;;;;;14.27;6.90;;;;;;;-2.84;71.54;100747.47;4423789;32;20174;-77
2022/03/06 03:10:09;;;;;;;12.73;6.80;;;;;;;-2.69;71.65;100746.50;4423819;32;20115;-77
2022/03/06 03:12:37;;;;;;;11.95;7.57;;;;;;;-2.59;71.10;100750.41;4409252;32;20109;-77
2022/03/06 03:15:06;;;;;;;12.50;6.47;;;;;;;-2.55;70.91;100746.25;4423625;32;20081;-77
2022/03/06 03:17:33;;;;;;;9.82;6.03;;;;;;;-2.48;70.61;100743.16;4423888;32;20082;-77
2022/03/06 03:20:00;;;;;;;12.30;6.72;;;;;;;-2.46;70.97;100746.69;4423715;32;20100;-77
2022/03/06 03:22:28;;;;;;;10.23;6.68;;;;;;;-2.37;70.11;100754.84;4409467;32;20164;-77
2022/03/06 03:24:55;;;;;;;14.23;6.80;;;;;;;-2.40;70.28;100749.56;4423731;32;20094;-77
2022/03/06 03:27:22;;;;;;;11.68;6.55;;;;;;;-2.33;70.22;100742.97;4423707;32;20522;-77
2022/03/06 03:29:50;;;;;;;10.70;6.53;;;;;;;-2.43;70.55;100747.72;4423697;32;20182;-77
2022/03/06 03:32:17;;;;;;;15.00;6.65;;;;;;;-2.43;70.61;100747.72;4423581;32;20105;-77
2022/03/06 03:34:44;;;;;;;11.38;6.40;;;;;;;-2.39;70.38;100753.91;4423809;32;20097;-77
2022/03/06 03:37:11;;;;;;;10.80;6.15;;;;;;;-2.48;70.48;100753.47;4423661;32;20089;-77
2022/03/06 03:39:38;;;;;;;10.70;6.12;;;;;;;-2.51;71.28;100756.81;4409705;32;20092;-77
2022/03/06 03:42:06;;;;;;;9.80;6.12;;;;;;;-2.53;71.12;100755.84;4423575;32;20096;-77
2022/03/06 03:44:33;;;;;;;12.85;6.87;;;;;;;-2.51;71.12;100759.41;4409355;32;20090;-77
2022/03/06 03:47:01;;;;;;;11.12;6.37;;;;;;;-2.48;70.91;100756.06;4423656;32;20167;-77
2022/03/06 03:49:28;;;;;;;12.65;7.07;;;;;;;-2.47;70.42;100761.31;4423443;32;20143;-77
2022/03/06 03:51:55;;;;;;;12.20;6.60;;;;;;;-2.48;70.70;100771.53;4423703;32;20169;-77
2022/03/06 03:54:22;;;;;;;13.10;6.93;;;;;;;-2.52;70.87;100770.50;4409368;32;20420;-77
2022/03/06 03:56:49;;;;;;;15.07;7.32;;;;;;;-2.56;70.99;100770.31;4423598;32;20190;-77
2022/03/06 03:59:17;;;;;;;18.65;7.95;;;;;;;-2.60;70.99;100768.41;4423424;32;20105;-77
2022/03/06 04:01:44;;;;;;;14.00;7.50;;;;;;;-2.55;70.76;100772.94;4423453;32;20536;-77
2022/03/06 04:04:12;;;;;;;13.60;7.85;;;;;;;-2.60;71.03;100773.56;4409313;32;20108;-77
2022/03/06 04:06:39;;;;;;;15.90;7.43;;;;;;;-2.65;70.78;100773.31;4423436;32;20120;-77
2022/03/06 04:09:06;;;;;;;14.48;7.15;;;;;;;-2.69;70.86;100776.56;4423436;32;20174;-77
2022/03/06 04:11:33;;;;;;;13.32;6.53;;;;;;;-2.75;71.12;100781.47;4423080;32;20947;-77
2022/03/06 04:14:01;;;;;;;15.00;7.12;;;;;;;-2.77;71.45;100781.38;4423308;32;20102;-77
2022/03/06 04:16:28;;;;;;;15.52;7.57;;;;;;;-2.78;71.42;100786.47;4423171;32;20143;-77
2022/03/06 04:18:55;;;;;;;14.40;7.60;;;;;;;-2.81;71.57;100783.72;4423199;32;20096;-77
2022/03/06 04:21:22;;;;;;;14.52;7.62;;;;;;;-2.85;71.70;100782.69;4423265;32;20105;-77
2022/03/06 04:23:49;;;;;;;19.30;7.45;;;;;;;-2.97;72.07;100780.44;4423484;32;20146;-77
2022/03/06 04:26:17;;;;;;;15.05;7.18;;;;;;;-2.96;72.08;100789.91;4409118;32;20242;-77
2022/03/06 04:28:44;;;;;;;13.32;7.20;;;;;;;-3.08;73.02;100789.28;4423167;32;20452;-77
2022/03/06 04:31:11;;;;;;;15.93;7.57;;;;;;;-3.16;73.45;100785.47;4408795;32;20096;-77
2022/03/06 04:33:39;;;;;;;10.70;6.68;;;;;;;-3.11;73.00;100786.56;4423184;32;20139;-77
2022/03/06 04:36:06;;;;;;;13.30;6.62;;;;;;;-3.24;73.22;100782.50;4423102;32;20154;-77
2022/03/06 04:38:34;;;;;;;11.77;6.75;;;;;;;-3.34;73.74;100780.28;4408696;32;20605;-77
2022/03/06 04:41:01;;;;;;;14.45;7.43;;;;;;;-3.31;73.73;100782.13;4423077;32;20445;-77
2022/03/06 04:43:28;;;;;;;11.65;6.53;;;;;;;-3.39;74.17;100787.78;4423020;32;20335;-77
2022/03/06 04:45:56;;;;;;;17.80;7.18;;;;;;;-3.41;74.25;100784.25;4408609;32;20510;-77
2022/03/06 04:48:23;;;;;;;12.23;7.20;;;;;;;-3.25;74.21;100785.00;4423020;32;20463;-77
2022/03/06 04:50:50;;;;;;;14.45;7.40;;;;;;;-3.26;74.12;100784.12;4422944;32;20135;-77
2022/03/06 04:53:18;;;;;;;14.45;7.47;;;;;;;-3.25;73.64;100780.75;4422854;32;20081;-77
2022/03/06 04:55:45;;;;;;;13.93;7.15;;;;;;;-3.18;73.21;100781.91;4422940;32;20085;-77
2022/03/06 04:58:12;;;;;;;12.95;6.75;;;;;;;-3.24;73.70;100782.50;4422878;32;20101;-77
2022/03/06 05:00:40;;;;;;;12.00;6.60;;;;;;;-3.22;73.49;100785.16;4422812;32;20178;-77
2022/03/06 05:03:07;;;;;;;14.95;6.97;;;;;;;-3.08;72.90;100783.25;4422717;32;20090;-77
2022/03/06 05:05:34;;;;;;;12.15;6.25;;;;;;;-2.98;72.37;100788.94;4422720;32;20181;-77
2022/03/06 05:08:02;;;;;;;13.13;6.80;;;;;;;-2.91;72.15;100784.97;4422637;32;20562;-77
2022/03/06 05:10:29;;;;;;;13.82;6.65;;;;;;;-2.84;71.28;100788.75;4422584;32;20089;-77
2022/03/06 05:12:56;;;;;;;12.25;7.00;;;;;;;-2.80;71.12;100785.50;4422640;32;20464;-77
2022/03/06 05:15:24;;;;;;;13.77;7.47;;;;;;;-2.85;71.40;100792.13;4422571;32;20151;-77
2022/03/06 05:17:52;;;;;;;13.70;6.87;;;;;;;-2.85;71.45;100794.72;4422596;32;20101;-77
2022/03/06 05:20:19;;;;;;;14.52;7.43;;;;;;;-2.84;71.43;100791.31;4422489;32;20113;-77
2022/03/06 05:22:46;;;;;;;13.55;6.82;;;;;;;-2.80;71.08;100790.66;4423520;32;20154;-77
2022/03/06 05:25:14;;;;;;;10.13;6.00;;;;;;;-2.82;71.14;100794.88;4424525;32;20094;-77
2022/03/06 05:27:41;;;;;;;11.57;6.60;;;;;;;-2.85;71.21;100795.59;4410188;32;20108;-77
2022/03/06 05:30:10;;;;;;;13.23;7.60;;;;;;;-2.88;71.69;100795.44;4424593;32;20199;-77
2022/03/06 05:32:38;;;;;;;17.92;7.87;;;;;;;-2.88;71.70;100792.87;4410375;32;20231;-77
2022/03/06 05:35:06;;;;;;;14.18;7.70;;;;;;;-2.77;71.18;100790.81;4424489;32;20097;-77
2022/03/06 05:37:33;;;;;;;12.70;7.28;;;;;;;-2.70;70.80;100787.69;4424557;32;20097;-77
2022/03/06 05:40:01;;;;;;;10.13;6.40;;;;;;;-2.56;70.26;100789.25;4410278;32;20100;-77
2022/03/06 05:42:28;;;;;;;15.45;7.50;;;;;;;-2.53;70.11;100789.37;4385343;32;20086;-77
2022/03/06 05:44:55;;;;;;;14.07;7.18;;;;;;;-2.39;69.54;100790.03;4424303;32;20170;-77
2022/03/06 05:47:23;;;;;;;15.32;7.93;;;;;;;-2.37;69.56;100792.66;4410071;32;20533;-77
2022/03/06 05:49:50;;;;;;;11.43;6.47;;;;;;;-2.34;69.55;100796.28;4410153;32;20515;-77
2022/03/06 05:52:17;;;;;;;8.25;5.50;;;;;;;-2.22;69.21;100789.13;4424307;32;20665;-77
2022/03/06 05:54:45;;;;;;;8.90;5.62;;;;;;;-2.06;68.33;100790.69;4424315;32;20116;-77
2022/03/06 05:57:12;;;;;;;15.10;5.43;;;;;;;-1.93;67.94;100792.13;4410033;32;20131;-77
2022/03/06 05:59:39;;;;;;;12.63;5.68;;;;;;;-1.79;66.91;100788.47;4424418;32;20608;-77
2022/03/06 06:02:06;;;;;;;7.25;4.72;;;;;;;-1.61;66.25;100778.06;4424365;32;20093;-77
2022/03/06 06:04:34;;;;;;;9.85;5.22;;;;;;;-1.47;65.77;100784.69;4424298;32;20089;-77
2022/03/06 06:07:01;;;;;;;11.65;5.25;;;;;;;-1.39;65.87;100779.84;4424180;32;20166;-77
2022/03/06 06:09:28;;;;;;;7.82;4.68;;;;;;;-1.30;65.36;100779.37;4410002;32;20713;-77
2022/03/06 06:11:56;;;;;;;6.45;4.53;;;;;;;-1.18;64.77;100784.16;4424223;32;20463;-77
2022/03/06 06:14:23;;;;;;;8.15;4.82;;;;;;;-1.07;64.34;100783.78;4424345;32;20094;-77
2022/03/06 06:16:50;;;;;;;8.18;4.50;;;;;;;-1.04;64.17;100781.31;4424088;32;20101;-77
2022/03/06 06:19:18;;;;;;;7.82;4.93;;;;;;;-0.92;63.75;100786.09;4409996;32;20119;-77
2022/03/06 06:21:45;;;;;;;9.45;5.12;;;;;;;-0.78;62.96;100779.81;4424267;32;20086;-77
2022/03/06 06:24:14;;;;;;;8.65;4.50;;;;;;;-0.63;62.64;100784.69;4424380;32;20098;-77
2022/03/06 06:26:43;;;;;;;10.60;5.40;;;;;;;-0.58;62.35;100783.16;4424442;32;20210;-77
2022/03/06 06:29:12;;;;;;;7.95;4.40;;;;;;;-0.48;62.02;100787.00;4424180;32;20449;-77
2022/03/06 06:31:40;;;;;;;8.50;4.57;;;;;;;-0.38;61.72;100788.25;4424041;32;20444;-77
2022/03/06 06:34:11;;;;;;;10.68;5.18;;;;;;;-0.33;61.55;100794.47;4423996;32;20093;-77
2022/03/06 06:36:38;;;;;;;11.82;5.10;;;;;;;-0.26;61.58;100797.34;4424032;32;20173;-77
2022/03/06 06:39:05;;;;;;;8.52;5.20;;;;;;;-0.11;61.03;100791.00;4424029;32;20487;-77
2022/03/06 06:41:33;;;;;;;6.90;4.62;;;;;;;0.02;60.70;100789.75;4424129;32;20142;-77
2022/03/06 06:44:01;;;;;;;7.80;4.55;;;;;;;0.07;60.15;100790.78;4424298;32;20094;-77
2022/03/06 06:46:28;;;;;;;8.95;5.07;;;;;;;0.21;59.98;100795.69;4424035;32;20458;-77
2022/03/06 06:48:55;;;;;;;9.30;5.05;;;;;;;0.29;59.82;100793.34;4423966;32;20109;-77
2022/03/06 06:51:22;;;;;;;11.43;5.37;;;;;;;0.40;58.92;100785.97;4409646;32;20089;-77
2022/03/06 06:53:50;;;;;;;11.68;5.75;;;;;;;0.47;59.03;100791.41;4424130;32;20515;-77
2022/03/06 06:56:17;;;;;;;7.18;4.62;;;;;;;0.59;58.47;100790.94;4423907;32;20132;-77
2022/03/06 06:58:44;;;;;;;7.03;4.15;;;;;;;0.70;58.06;100794.78;4423997;32;20105;-77
2022/03/06 07:01:12;;;;;;;11.90;4.90;;;;;;;0.85;57.66;100799.66;4423925;32;20116;-77
2022/03/06 07:03:40;;;;;;;10.50;4.80;;;;;;;0.90;57.53;100799.78;4409791;32;20081;-77
2022/03/06 07:06:07;;;;;;;8.38;4.72;;;;;;;1.00;56.66;100795.78;4423751;32;20093;-77
2022/03/06 07:08:34;;;;;;;8.32;4.60;;;;;;;1.08;56.65;100796.94;4423871;32;20181;-77
2022/03/06 07:11:01;;;;;;;8.80;4.82;;;;;;;1.10;56.66;100797.88;4423925;32;20169;-77
2022/03/06 07:13:28;;;;;;;9.30;5.28;;;;;;;1.18;56.00;100799.87;4424151;32;20093;-77
2022/03/06 07:15:56;;;;;;;12.05;4.90;;;;;;;1.30;55.77;100801.97;4423850;32;20495;-77
2022/03/06 07:18:23;;;;;;;11.02;5.12;;;;;;;1.46;55.42;100795.56;4424210;32;20148;-78
2022/03/06 07:20:50;;;;;;;7.93;4.62;;;;;;;1.51;54.96;100800.91;4423835;32;20155;-77
2022/03/06 07:23:17;;;;;;;8.93;4.85;;;;;;;1.55;54.31;100800.16;4424011;32;20151;-77
2022/03/06 07:25:46;;;;;;;10.82;4.90;;;;;;;1.63;54.31;100798.69;4423913;32;20136;-77
2022/03/06 07:28:13;;;;;;;8.98;4.72;;;;;;;1.64;54.24;100800.44;4409541;32;20117;-77
2022/03/06 07:30:41;;;;;;;19.15;8.82;;;;;;;1.66;53.97;100797.06;4423764;32;20465;-77
2022/03/06 07:33:08;;;;;;;10.90;5.53;;;;;;;1.76;54.26;100792.13;4423907;32;20081;-78
2022/03/06 07:35:35;;;;;;;7.97;4.80;;;;;;;1.92;53.43;100794.38;4423838;32;20124;-77
2022/03/06 07:38:03;;;;;;;8.90;5.15;;;;;;;1.94;53.34;100800.47;4423880;32;20169;-78
2022/03/06 07:40:31;;;;;;;10.43;5.93;;;;;;;2.02;53.11;100798.12;4424136;32;20116;-77
2022/03/06 07:42:58;;;;;;;13.70;5.07;;;;;;;2.10;53.06;100796.63;4423798;32;20116;-78
2022/03/06 07:45:26;;;;;;;9.35;4.75;;;;;;;2.17;52.85;100793.37;4423101;32;20847;-77
2022/03/06 07:47:54;;;;;;;8.18;4.57;;;;;;;2.24;51.94;100799.63;4423790;32;20117;-77
2022/03/06 07:50:21;;;;;;;8.95;5.00;;;;;;;2.35;52.33;100793.88;4423799;32;20081;-77
2022/03/06 07:52:49;;;;;;;9.10;4.28;;;;;;;2.48;51.88;100794.22;4423811;32;20499;-77
2022/03/06 07:55:17;;;;;;;9.98;4.72;;;;;;;2.55;51.07;100797.03;4423490;32;20579;-77
2022/03/06 07:57:44;;;;;;;7.43;4.78;;;;;;;2.56;50.67;100796.19;4423671;32;20089;-77
2022/03/06 08:00:12;;;;;;;11.18;4.10;;;;;;;2.68;50.66;100790.41;4423718;32;20495;-77
2022/03/06 08:02:39;;;;;;;12.20;4.53;;;;;;;2.78;50.36;100792.44;4424027;32;20081;-77
2022/03/06 08:05:08;;;;;;;9.77;4.53;;;;;;;2.87;50.15;100789.19;4423593;32;20098;-77
2022/03/06 08:07:36;;;;;;;9.40;4.68;;;;;;;3.07;49.98;100794.88;4422971;32;20097;-78
2022/03/06 08:10:06;;;;;;;7.35;4.20;;;;;;;3.24;49.04;100785.78;4423167;32;20140;-78
2022/03/06 08:12:33;;;;;;;6.30;3.47;;;;;;;3.33;49.20;100779.91;4423087;32;20108;-78
2022/03/06 08:15:01;;;;;;;6.80;3.75;;;;;;;3.43;48.40;100781.91;4423935;32;20528;-77
2022/03/06 08:17:28;;;;;;;5.75;3.65;;;;;;;3.54;48.18;100779.53;4423648;32;20109;-78
2022/03/06 08:19:55;;;;;;;4.60;3.45;;;;;;;3.58;47.27;100783.97;4423514;32;20166;-77
2022/03/06 08:22:23;;;;;;;5.45;3.15;;;;;;;3.58;47.23;100779.63;4409440;32;20116;-77
2022/03/06 08:24:51;;;;;;;5.25;3.58;;;;;;;3.71;47.06;100778.19;4423554;32;20373;-77
2022/03/06 08:27:18;;;;;;;8.35;4.05;;;;;;;3.83;47.52;100772.37;4423490;32;20105;-78
2022/03/06 08:29:45;;;;;;;5.93;3.85;;;;;;;3.95;46.76;100771.75;4423494;32;20119;-78
2022/03/06 08:32:13;;;;;;;10.75;4.75;;;;;;;4.02;45.81;100764.06;4422928;32;20102;-78
2022/03/06 08:34:40;;;;;;;7.55;3.83;;;;;;;4.17;46.26;100760.94;4423228;32;20086;-78
2022/03/06 08:37:08;;;;;;;5.12;3.67;;;;;;;4.22;45.54;100754.06;4423151;32;20123;-78
2022/03/06 08:39:35;;;;;;;7.70;3.70;;;;;;;4.39;44.94;100762.22;4423145;32;20884;-78
2022/03/06 08:42:03;;;;;;;7.78;3.97;;;;;;;4.40;45.73;100757.88;4423003;32;20132;-78
2022/03/06 08:44:30;;;;;;;6.43;3.67;;;;;;;4.51;45.43;100753.72;4423024;32;20612;-78
2022/03/06 08:46:58;;;;;;;7.57;3.87;;;;;;;4.72;45.36;100751.50;4423234;32;20180;-78
2022/03/06 08:49:25;;;;;;;7.25;3.83;;;;;;;4.85;44.98;100756.97;4423067;32;20345;-78
2022/03/06 08:51:52;;;;;;;7.62;4.07;;;;;;;4.85;44.02;100755.22;4422875;32;20150;-78
2022/03/06 08:54:21;;;;;;;8.30;4.20;;;;;;;4.86;44.28;100751.75;4423034;32;20124;-78
2022/03/06 08:56:48;;;;;;;9.15;4.97;;;;;;;4.95;43.97;100757.16;4423315;32;20093;-78
2022/03/06 08:59:16;;;;;;;6.35;4.07;;;;;;;5.01;43.99;100756.34;4424725;32;20414;-78
2022/03/06 09:01:43;;;;;;;6.35;3.45;;;;;;;5.22;43.97;100759.31;4424690;32;20097;-78
2022/03/06 09:04:11;;;;;;;6.43;3.30;;;;;;;5.29;43.33;100762.91;4410503;32;20106;-78
2022/03/06 09:06:39;;;;;;;5.50;3.25;;;;;;;5.43;42.02;100753.53;4424552;32;20162;-78
2022/03/06 09:09:06;;;;;;;5.87;3.28;;;;;;;5.43;41.73;100752.66;4424563;32;20093;-78
2022/03/06 09:11:34;;;;;;;5.10;3.75;;;;;;;5.41;41.37;100754.38;4410302;32;20472;-78
2022/03/06 09:14:01;;;;;;;5.47;3.95;;;;;;;5.43;42.21;100745.69;4410337;32;20102;-78
2022/03/06 09:16:29;;;;;;;7.37;3.50;;;;;;;5.64;42.19;100758.19;4424639;32;20503;-78
2022/03/06 09:18:56;;;;;;;6.80;3.65;;;;;;;5.83;41.62;100768.91;4410394;32;20146;-78
2022/03/06 09:21:23;;;;;;;5.93;3.55;;;;;;;5.78;41.08;100763.63;4424621;32;20101;-78
2022/03/06 09:23:51;;;;;;;5.03;2.83;;;;;;;5.73;40.88;100757.47;4424611;32;20090;-78
2022/03/06 09:26:18;;;;;;;4.32;2.35;;;;;;;6.01;39.95;100756.13;4424598;32;20548;-78
2022/03/06 09:28:45;;;;;;;5.32;2.80;;;;;;;5.90;40.43;100755.03;4424692;32;20160;-78
2022/03/06 09:31:13;;;;;;;4.18;2.97;;;;;;;6.22;39.40;100745.91;4424491;32;20412;-78
2022/03/06 09:33:40;;;;;;;3.78;2.35;;;;;;;6.10;38.86;100747.50;4424349;32;20489;-78
2022/03/06 09:36:26;;;;;;;7.95;3.00;;;;;;;6.21;38.87;100751.97;4424472;32;20135;-78
2022/03/06 09:38:53;;;;;;;9.82;3.85;;;;;;;6.26;38.65;100748.56;4410241;32;20471;-78
2022/03/06 09:41:26;;;;;;;10.88;4.30;;;;;;;6.49;39.11;100752.28;4424472;32;20444;-79
2022/03/06 09:43:55;;;;;;;8.73;3.92;;;;;;;6.64;38.37;100746.34;4424356;32;20110;-78
2022/03/06 09:46:24;;;;;;;6.72;4.12;;;;;;;6.82;38.11;100748.25;4424403;32;20389;-78
2022/03/06 09:48:52;;;;;;;9.85;4.35;;;;;;;7.14;37.55;100744.19;4424440;32;20089;-79
2022/03/06 09:51:20;;;;;;;7.18;4.70;;;;;;;6.98;37.45;100747.53;4424454;32;20112;-78
2022/03/06 09:53:48;;;;;;;6.10;4.25;;;;;;;6.97;38.29;100735.31;4424419;32;20502;-78
2022/03/06 09:56:15;;;;;;;12.27;5.28;;;;;;;7.30;37.16;100737.31;4424390;32;20156;-79
2022/03/06 09:58:42;;;;;;;11.93;5.50;;;;;;;7.62;37.85;100742.75;4409948;32;20097;-78
2022/03/06 10:01:10;;;;;;;15.90;5.15;;;;;;;7.73;36.95;100728.81;4424279;32;20151;-77
2022/03/06 10:03:37;;;;;;;7.93;5.22;;;;;;;7.80;37.54;100727.97;4410002;32;20436;-76
2022/03/06 10:06:05;;;;;;;12.07;5.93;;;;;;;7.85;37.03;100728.91;4424247;32;20096;-76
2022/03/06 10:08:33;;;;;;;9.00;5.43;;;;;;;7.86;37.58;100725.41;4423994;32;20166;-76
2022/03/06 10:11:12;;;;;;;8.50;4.95;;;;;;;8.12;36.35;100723.75;4410736;32;20082;-76
2022/03/06 10:13:44;;;;;;;11.95;5.95;;;;;;;8.09;36.51;100723.75;4424516;32;20098;-76
2022/03/06 10:16:20;;;;;;;11.77;5.65;;;;;;;8.24;36.39;100724.69;4424019;32;20108;-76
2022/03/06 10:18:48;;;;;;;11.38;5.28;;;;;;;8.27;36.08;100724.66;4424134;32;20504;-76
2022/03/06 10:21:25;;;;;;;12.82;5.07;;;;;;;8.35;35.97;100715.06;4424309;32;20085;-76
2022/03/06 10:24:08;;;;;;;11.50;5.57;;;;;;;8.46;36.37;100718.63;4424127;32;20128;-76
2022/03/06 10:26:36;;;;;;;11.65;5.20;;;;;;;8.54;36.37;100714.25;4424186;32;20089;-76
2022/03/06 10:29:11;;;;;;;10.77;6.20;;;;;;;8.67;36.46;100720.41;4424006;32;20073;-76
2022/03/06 10:32:00;;;;;;;10.18;5.15;;;;;;;8.78;35.28;100717.81;4423947;32;20456;-76
2022/03/06 10:34:35;;;;;;;10.73;6.57;;;;;;;9.02;35.98;100715.19;4424065;32;20085;-76
2022/03/06 10:37:03;;;;;;;8.60;5.07;;;;;;;9.34;34.49;100709.03;4424062;32;20529;-76
2022/03/06 10:39:42;;;;;;;11.65;5.15;;;;;;;9.16;34.60;100703.78;4409620;32;20577;-76
2022/03/06 10:42:10;;;;;;;9.23;5.10;;;;;;;9.47;34.49;100692.34;4423993;32;20366;-76
2022/03/06 10:44:46;;;;;;;11.88;5.47;;;;;;;9.33;34.32;100699.38;4423925;32;20535;-76
2022/03/06 10:47:18;;;;;;;6.97;4.75;;;;;;;9.23;34.32;100689.75;4410405;32;20101;-76
2022/03/06 10:50:02;;;;;;;8.23;4.95;;;;;;;9.36;33.80;100694.09;4423799;32;20081;-76
2022/03/06 10:52:41;;;;;;;9.95;5.75;;;;;;;9.25;34.02;100680.97;4423673;32;20143;-76
2022/03/06 10:55:09;;;;;;;13.98;5.57;;;;;;;9.45;34.65;100674.81;4409932;32;20169;-76
2022/03/06 10:57:36;;;;;;;8.38;5.32;;;;;;;9.84;33.00;100686.06;4423844;32;20121;-76
2022/03/06 11:00:04;;;;;;;17.27;5.20;;;;;;;10.52;32.09;100682.22;4409816;32;20107;-76
2022/03/06 11:02:33;;;;;;;15.20;6.15;;;;;;;11.76;30.83;100672.25;4423821;32;20093;-76
2022/03/06 11:05:02;;;;;;;11.20;5.72;;;;;;;13.05;28.80;100660.69;4423873;32;20159;-77
2022/03/06 11:07:29;;;;;;;10.93;6.18;;;;;;;13.91;27.77;100654.63;4423712;32;20159;-77
2022/03/06 11:09:57;;;;;;;10.55;5.75;;;;;;;14.69;26.53;100644.91;4423704;32;20145;-76
2022/03/06 11:12:26;;;;;;;9.75;5.60;;;;;;;15.06;26.16;100654.59;4423752;32;20089;-75
2022/03/06 11:14:53;;;;;;;9.70;5.68;;;;;;;15.45;25.01;100647.34;4423555;32;20162;-75
2022/03/06 11:17:21;;;;;;;12.18;6.80;;;;;;;16.22;25.20;100639.81;4423751;32;20089;-75
2022/03/06 11:19:48;;;;;;;9.00;5.55;;;;;;;16.54;23.81;100630.81;4422738;32;20494;-75
2022/03/06 11:22:29;;;;;;;11.07;5.80;;;;;;;16.93;23.84;100633.97;4423776;32;20485;-76
2022/03/06 11:25:02;;;;;;;14.95;6.55;;;;;;;15.67;24.27;100626.38;4423942;32;20120;-76
2022/03/06 11:27:59;;;;;;;9.07;6.40;;;;;;;15.85;24.16;100629.44;4423681;32;20436;-76
2022/03/06 11:30:27;;;;;;;8.68;6.30;;;;;;;16.74;24.42;100635.50;4423981;32;20548;-76